Ever Delight — 3FCB8 — position and weather

sailwx.info

Track history (hours):
 
Tides and Currents Weather Stations Pressure Air Temp Water Temp Dewpoint Dewpoint Depression Visibility Wind Speed Wind Dir Waves Ship Positions

Ever Delight

Last reported at 2017-Oct-08 21:07 UTC. Time now 2017-Oct-18 20:29 UTC.
Position N 01°15' E 103°47'.
Warning: this ship's position is 9 days out of date.

Type: Cargo ship. MMSI: 351936000.

Date/timePositionNaut miles runAvg speedWind from/ knotsBaromVisibWave heightAir tempDewpointWater temp
2017-Oct-08 21:07N 01°15' E 103°47'0 0.0
2017-Oct-08 19:36N 01°15' E 103°47'0 0.1
2017-Oct-08 19:30N 01°15' E 103°47'0 0.0
2017-Oct-08 18:44N 01°15' E 103°47'0 0.0
2017-Oct-08 18:22N 01°15' E 103°47'0 0.0
2017-Oct-08 17:55N 01°15' E 103°47'0 0.0
2017-Oct-08 17:30N 01°15' E 103°47'0 0.0
2017-Oct-08 17:00N 01°15' E 103°47'2621.7
2017-Oct-08 15:47N 01°17' E 103°21'412.3
2017-Oct-08 15:29N 01°14' E 103°24'613.0
2017-Oct-08 14:59N 01°13' E 103°30'613.5
2017-Oct-08 14:30N 01°11' E 103°36'4 8.3
2017-Oct-08 14:00N 01°13' E 103°40'611.3
2017-Oct-08 13:30N 01°16' E 103°45'3 5.1
2017-Oct-08 13:01N 01°15' E 103°47'0 0.4
2017-Oct-08 12:30N 01°15' E 103°47'0 0.0
2017-Oct-08 12:00N 01°15' E 103°47'0 0.0
2017-Oct-08 11:30N 01°15' E 103°47'0 0.0
2017-Oct-08 11:00N 01°15' E 103°47'0 0.0
2017-Oct-08 10:30N 01°15' E 103°47'0 0.0
2017-Oct-08 10:00N 01°15' E 103°47'0 0.0
2017-Oct-08 09:30N 01°15' E 103°47'0 0.0
2017-Oct-08 09:01N 01°15' E 103°47'0 0.0
2017-Oct-08 08:31N 01°15' E 103°47'0 0.0
2017-Oct-08 08:01N 01°15' E 103°47'0 0.0
2017-Oct-08 07:31N 01°15' E 103°47'0 0.0
2017-Oct-08 07:00N 01°15' E 103°47'0 0.1
2017-Oct-08 06:31N 01°15' E 103°47'0 0.1
2017-Oct-08 06:00N 01°15' E 103°47'0 0.0
2017-Oct-08 05:30N 01°15' E 103°47'0 0.0
2017-Oct-08 05:01N 01°15' E 103°47'0 0.0
2017-Oct-08 04:31N 01°15' E 103°47'0 0.0
2017-Oct-08 04:01N 01°15' E 103°47'0 0.0
2017-Oct-08 03:30N 01°15' E 103°47'0 0.0
2017-Oct-08 03:01N 01°15' E 103°47'0 0.0
2017-Oct-08 02:30N 01°15' E 103°47'0 0.0
2017-Oct-08 02:01N 01°15' E 103°47'0 0.0
2017-Oct-08 01:30N 01°15' E 103°47'0 0.0
2017-Oct-08 01:00N 01°15' E 103°47'1 1.1
2017-Oct-08 00:31N 01°15' E 103°47'0 0.5
2017-Oct-08 00:01N 01°15' E 103°47'0 0.2
2017-Oct-07 23:31N 01°14' E 103°47'0 0.1
2017-Oct-07 23:00N 01°14' E 103°47'0 0.1
2017-Oct-07 22:30N 01°14' E 103°47'0 0.0
2017-Oct-07 22:00N 01°14' E 103°47'0 0.0
2017-Oct-07 21:31N 01°14' E 103°47'0 0.0
2017-Oct-07 21:01N 01°14' E 103°47'0 0.1
2017-Oct-07 20:31N 01°14' E 103°47'0 0.0
2017-Oct-07 20:01N 01°14' E 103°47'0 0.0
2017-Oct-07 19:31N 01°14' E 103°47'0 0.0
2017-Oct-07 19:00N 01°14' E 103°47'0 0.0
2017-Oct-07 18:30N 01°14' E 103°47'0 0.1
2017-Oct-07 18:00N 01°14' E 103°47'0 0.2
2017-Oct-07 17:30N 01°14' E 103°47'0 0.0
2017-Oct-07 17:01N 01°14' E 103°47'0 0.0
2017-Oct-07 16:31N 01°14' E 103°47'0 0.2
2017-Oct-07 16:00N 01°14' E 103°47'1 1.4
2017-Oct-07 15:31N 01°15' E 103°46'3 6.2
2017-Oct-07 15:01N 01°15' E 103°43'611.2
2017-Oct-07 14:30N 01°12' E 103°38'4 7.5
2017-Oct-07 13:59N 01°12' E 103°34'3 6.9
2017-Oct-07 13:31N 01°11' E 103°31'0 0.4
2017-Oct-07 12:57N 01°11' E 103°31'1 2.9
2017-Oct-07 12:30N 01°12' E 103°32'3 6.0
2017-Oct-07 12:01N 01°15' E 103°32'5 9.7
2017-Oct-07 11:31N 01°20' E 103°33'2 3.8
2017-Oct-07 10:59N 01°22' E 103°33'0 0.2
2017-Oct-07 10:19N 01°22' E 103°33'0 0.2
2017-Oct-07 09:58N 01°22' E 103°33'0 0.1
2017-Oct-07 09:31N 01°22' E 103°33'0 0.0
2017-Oct-07 08:59N 01°22' E 103°33'0 0.0
2017-Oct-07 08:30N 01°22' E 103°33'0 0.1
2017-Oct-07 08:00N 01°22' E 103°33'0 0.1
2017-Oct-07 07:30N 01°22' E 103°33'0 0.0
2017-Oct-07 06:57N 01°22' E 103°33'0 0.0
2017-Oct-07 06:31N 01°22' E 103°33'0 0.0
2017-Oct-07 05:59N 01°22' E 103°33'0 0.0
2017-Oct-07 05:26N 01°22' E 103°33'0 0.0
2017-Oct-07 04:59N 01°22' E 103°33'0 0.0
2017-Oct-07 04:29N 01°22' E 103°33'0 0.1
2017-Oct-07 04:01N 01°22' E 103°33'0 0.1
2017-Oct-07 03:29N 01°22' E 103°33'0 0.0
2017-Oct-07 02:59N 01°22' E 103°33'0 0.0
2017-Oct-07 02:30N 01°22' E 103°33'0 0.0
2017-Oct-07 02:00N 01°22' E 103°33'0 0.0
2017-Oct-07 01:27N 01°22' E 103°33'0 0.0
2017-Oct-07 00:54N 01°22' E 103°33'0 0.2
2017-Oct-07 00:31N 01°22' E 103°33'0 0.1
2017-Oct-06 23:54N 01°22' E 103°33'0 0.2
2017-Oct-06 23:30N 01°22' E 103°33'0 0.1
2017-Oct-06 22:56N 01°22' E 103°33'0 0.1
2017-Oct-06 22:21N 01°22' E 103°33'0 0.2
2017-Oct-06 21:57N 01°22' E 103°33'0 0.0
2017-Oct-06 21:30N 01°22' E 103°33'0 0.0
2017-Oct-06 20:42N 01°22' E 103°33'0 0.0
2017-Oct-06 20:27N 01°22' E 103°33'0 0.0
2017-Oct-06 19:54N 01°22' E 103°33'0 0.0
2017-Oct-06 19:30N 01°22' E 103°33'0 0.0
2017-Oct-06 18:36N 01°22' E 103°33'0 0.0
2017-Oct-06 18:30N 01°22' E 103°33'0 0.0
2017-Oct-06 17:57N 01°22' E 103°33'0 0.0
2017-Oct-06 17:31N 01°22' E 103°33'0 0.0
2017-Oct-06 16:57N 01°22' E 103°33'0 0.0
2017-Oct-06 16:31N 01°22' E 103°33'0 0.0
2017-Oct-06 15:58N 01°22' E 103°33'0 0.0
2017-Oct-06 15:28N 01°22' E 103°33'0 0.0
2017-Oct-06 14:58N 01°22' E 103°33'0 0.1
2017-Oct-06 14:28N 01°22' E 103°33'0 0.1
2017-Oct-06 13:58N 01°22' E 103°33'0 0.0
2017-Oct-06 13:19N 01°22' E 103°33'0 0.0
2017-Oct-06 13:00N 01°22' E 103°33'0 0.0
2017-Oct-06 12:29N 01°22' E 103°33'0 0.1
2017-Oct-06 11:59N 01°22' E 103°33'2 4.1
2017-Oct-06 11:30N 01°20' E 103°33'510.1
2017-Oct-06 11:00N 01°15' E 103°32'3 6.7
2017-Oct-06 10:29N 01°14' E 103°29'2 3.1
2017-Oct-06 10:00N 01°15' E 103°28'0 0.1
2017-Oct-06 09:29N 01°15' E 103°28'0 0.1
2017-Oct-06 08:41N 01°15' E 103°28'0 0.2
2017-Oct-06 08:20N 01°15' E 103°28'0 0.1
2017-Oct-06 07:53N 01°15' E 103°28'0 0.2
2017-Oct-06 07:17N 01°15' E 103°28'0 0.3
2017-Oct-06 07:00N 01°15' E 103°28'0 0.2
2017-Oct-06 06:30N 01°15' E 103°28'0 0.0
2017-Oct-06 05:36N 01°15' E 103°28'0 0.0
2017-Oct-06 05:21N 01°15' E 103°28'0 0.0
2017-Oct-06 04:57N 01°15' E 103°28'0 0.1
2017-Oct-06 01:18N 01°15' E 103°28'0 0.2
2017-Oct-06 00:54N 01°15' E 103°28'0 0.1
2017-Oct-06 00:30N 01°15' E 103°28'0 0.1
2017-Oct-05 23:42N 01°15' E 103°28'0 0.0
2017-Oct-05 23:18N 01°15' E 103°28'0 0.0
2017-Oct-05 23:00N 01°15' E 103°28'0 0.0
2017-Oct-05 22:30N 01°15' E 103°28'0 0.0
2017-Oct-05 22:00N 01°15' E 103°28'0 0.0
2017-Oct-05 21:30N 01°15' E 103°28'0 0.0
2017-Oct-05 21:00N 01°15' E 103°28'0 0.0
2017-Oct-05 20:21N 01°15' E 103°28'0 0.0
2017-Oct-05 20:00N 01°15' E 103°28'0 0.0
2017-Oct-05 19:30N 01°15' E 103°28'0 0.0
2017-Oct-05 18:51N 01°15' E 103°28'0 0.0
2017-Oct-05 18:30N 01°15' E 103°28'0 0.0
2017-Oct-05 18:00N 01°15' E 103°28'0 0.0
2017-Oct-05 17:30N 01°15' E 103°28'0 0.0
2017-Oct-05 17:00N 01°15' E 103°28'0 0.0
2017-Oct-05 15:27N 01°15' E 103°28'0 0.1
2017-Oct-05 14:51N 01°15' E 103°28'0 0.0
2017-Oct-05 14:15N 01°15' E 103°28'0 0.0
2017-Oct-05 13:54N 01°15' E 103°28'0 0.0
2017-Oct-05 13:27N 01°15' E 103°28'0 0.2
2017-Oct-05 13:00N 01°15' E 103°28'3 6.3
2017-Oct-05 12:30N 01°14' E 103°25'712.3
2017-Oct-05 11:56N 01°16' E 103°18'  
Track history (hours):
 
Tides and Currents Weather Stations Pressure Air Temp Water Temp Dewpoint Dewpoint Depression Visibility Wind Speed Wind Dir Waves Ship Positions

Ever Delight

Last reported at 2017-Oct-08 21:07 UTC. Time now 2017-Oct-18 20:29 UTC.
Position N 01°15' E 103°47'.
Warning: this ship's position is 9 days out of date.

Type: Cargo ship. MMSI: 351936000.

Date/timePositionNaut miles runAvg speedWind from/ knotsBaromVisibWave heightAir tempDewpointWater temp
2017-Oct-08 21:07N 01°15' E 103°47'0 0.0
2017-Oct-08 19:36N 01°15' E 103°47'0 0.1
2017-Oct-08 19:30N 01°15' E 103°47'0 0.0
2017-Oct-08 18:44N 01°15' E 103°47'0 0.0
2017-Oct-08 18:22N 01°15' E 103°47'0 0.0
2017-Oct-08 17:55N 01°15' E 103°47'0 0.0
2017-Oct-08 17:30N 01°15' E 103°47'0 0.0
2017-Oct-08 17:00N 01°15' E 103°47'2621.7
2017-Oct-08 15:47N 01°17' E 103°21'412.3
2017-Oct-08 15:29N 01°14' E 103°24'613.0
2017-Oct-08 14:59N 01°13' E 103°30'613.5
2017-Oct-08 14:30N 01°11' E 103°36'4 8.3
2017-Oct-08 14:00N 01°13' E 103°40'611.3
2017-Oct-08 13:30N 01°16' E 103°45'3 5.1
2017-Oct-08 13:01N 01°15' E 103°47'0 0.4
2017-Oct-08 12:30N 01°15' E 103°47'0 0.0
2017-Oct-08 12:00N 01°15' E 103°47'0 0.0
2017-Oct-08 11:30N 01°15' E 103°47'0 0.0
2017-Oct-08 11:00N 01°15' E 103°47'0 0.0
2017-Oct-08 10:30N 01°15' E 103°47'0 0.0
2017-Oct-08 10:00N 01°15' E 103°47'0 0.0
2017-Oct-08 09:30N 01°15' E 103°47'0 0.0
2017-Oct-08 09:01N 01°15' E 103°47'0 0.0
2017-Oct-08 08:31N 01°15' E 103°47'0 0.0
2017-Oct-08 08:01N 01°15' E 103°47'0 0.0
2017-Oct-08 07:31N 01°15' E 103°47'0 0.0
2017-Oct-08 07:00N 01°15' E 103°47'0 0.1
2017-Oct-08 06:31N 01°15' E 103°47'0 0.1
2017-Oct-08 06:00N 01°15' E 103°47'0 0.0
2017-Oct-08 05:30N 01°15' E 103°47'0 0.0
2017-Oct-08 05:01N 01°15' E 103°47'0 0.0
2017-Oct-08 04:31N 01°15' E 103°47'0 0.0
2017-Oct-08 04:01N 01°15' E 103°47'0 0.0
2017-Oct-08 03:30N 01°15' E 103°47'0 0.0
2017-Oct-08 03:01N 01°15' E 103°47'0 0.0
2017-Oct-08 02:30N 01°15' E 103°47'0 0.0
2017-Oct-08 02:01N 01°15' E 103°47'0 0.0
2017-Oct-08 01:30N 01°15' E 103°47'0 0.0
2017-Oct-08 01:00N 01°15' E 103°47'1 1.1
2017-Oct-08 00:31N 01°15' E 103°47'0 0.5
2017-Oct-08 00:01N 01°15' E 103°47'0 0.2
2017-Oct-07 23:31N 01°14' E 103°47'0 0.1
2017-Oct-07 23:00N 01°14' E 103°47'0 0.1
2017-Oct-07 22:30N 01°14' E 103°47'0 0.0
2017-Oct-07 22:00N 01°14' E 103°47'0 0.0
2017-Oct-07 21:31N 01°14' E 103°47'0 0.0
2017-Oct-07 21:01N 01°14' E 103°47'0 0.1
2017-Oct-07 20:31N 01°14' E 103°47'0 0.0
2017-Oct-07 20:01N 01°14' E 103°47'0 0.0
2017-Oct-07 19:31N 01°14' E 103°47'0 0.0
2017-Oct-07 19:00N 01°14' E 103°47'0 0.0
2017-Oct-07 18:30N 01°14' E 103°47'0 0.1
2017-Oct-07 18:00N 01°14' E 103°47'0 0.2
2017-Oct-07 17:30N 01°14' E 103°47'0 0.0
2017-Oct-07 17:01N 01°14' E 103°47'0 0.0
2017-Oct-07 16:31N 01°14' E 103°47'0 0.2
2017-Oct-07 16:00N 01°14' E 103°47'1 1.4
2017-Oct-07 15:31N 01°15' E 103°46'3 6.2
2017-Oct-07 15:01N 01°15' E 103°43'611.2
2017-Oct-07 14:30N 01°12' E 103°38'4 7.5
2017-Oct-07 13:59N 01°12' E 103°34'3 6.9
2017-Oct-07 13:31N 01°11' E 103°31'0 0.4
2017-Oct-07 12:57N 01°11' E 103°31'1 2.9
2017-Oct-07 12:30N 01°12' E 103°32'3 6.0
2017-Oct-07 12:01N 01°15' E 103°32'5 9.7
2017-Oct-07 11:31N 01°20' E 103°33'2 3.8
2017-Oct-07 10:59N 01°22' E 103°33'0 0.2
2017-Oct-07 10:19N 01°22' E 103°33'0 0.2
2017-Oct-07 09:58N 01°22' E 103°33'0 0.1
2017-Oct-07 09:31N 01°22' E 103°33'0 0.0
2017-Oct-07 08:59N 01°22' E 103°33'0 0.0
2017-Oct-07 08:30N 01°22' E 103°33'0 0.1
2017-Oct-07 08:00N 01°22' E 103°33'0 0.1
2017-Oct-07 07:30N 01°22' E 103°33'0 0.0
2017-Oct-07 06:57N 01°22' E 103°33'0 0.0
2017-Oct-07 06:31N 01°22' E 103°33'0 0.0
2017-Oct-07 05:59N 01°22' E 103°33'0 0.0
2017-Oct-07 05:26N 01°22' E 103°33'0 0.0
2017-Oct-07 04:59N 01°22' E 103°33'0 0.0
2017-Oct-07 04:29N 01°22' E 103°33'0 0.1
2017-Oct-07 04:01N 01°22' E 103°33'0 0.1
2017-Oct-07 03:29N 01°22' E 103°33'0 0.0
2017-Oct-07 02:59N 01°22' E 103°33'0 0.0
2017-Oct-07 02:30N 01°22' E 103°33'0 0.0
2017-Oct-07 02:00N 01°22' E 103°33'0 0.0
2017-Oct-07 01:27N 01°22' E 103°33'0 0.0
2017-Oct-07 00:54N 01°22' E 103°33'0 0.2
2017-Oct-07 00:31N 01°22' E 103°33'0 0.1
2017-Oct-06 23:54N 01°22' E 103°33'0 0.2
2017-Oct-06 23:30N 01°22' E 103°33'0 0.1
2017-Oct-06 22:56N 01°22' E 103°33'0 0.1
2017-Oct-06 22:21N 01°22' E 103°33'0 0.2
2017-Oct-06 21:57N 01°22' E 103°33'0 0.0
2017-Oct-06 21:30N 01°22' E 103°33'0 0.0
2017-Oct-06 20:42N 01°22' E 103°33'0 0.0
2017-Oct-06 20:27N 01°22' E 103°33'0 0.0
2017-Oct-06 19:54N 01°22' E 103°33'0 0.0
2017-Oct-06 19:30N 01°22' E 103°33'0 0.0
2017-Oct-06 18:36N 01°22' E 103°33'0 0.0
2017-Oct-06 18:30N 01°22' E 103°33'0 0.0
2017-Oct-06 17:57N 01°22' E 103°33'0 0.0
2017-Oct-06 17:31N 01°22' E 103°33'0 0.0
2017-Oct-06 16:57N 01°22' E 103°33'0 0.0
2017-Oct-06 16:31N 01°22' E 103°33'0 0.0
2017-Oct-06 15:58N 01°22' E 103°33'0 0.0
2017-Oct-06 15:28N 01°22' E 103°33'0 0.0
2017-Oct-06 14:58N 01°22' E 103°33'0 0.1
2017-Oct-06 14:28N 01°22' E 103°33'0 0.1
2017-Oct-06 13:58N 01°22' E 103°33'0 0.0
2017-Oct-06 13:19N 01°22' E 103°33'0 0.0
2017-Oct-06 13:00N 01°22' E 103°33'0 0.0
2017-Oct-06 12:29N 01°22' E 103°33'0 0.1
2017-Oct-06 11:59N 01°22' E 103°33'2 4.1
2017-Oct-06 11:30N 01°20' E 103°33'510.1
2017-Oct-06 11:00N 01°15' E 103°32'3 6.7
2017-Oct-06 10:29N 01°14' E 103°29'2 3.1
2017-Oct-06 10:00N 01°15' E 103°28'0 0.1
2017-Oct-06 09:29N 01°15' E 103°28'0 0.1
2017-Oct-06 08:41N 01°15' E 103°28'0 0.2
2017-Oct-06 08:20N 01°15' E 103°28'0 0.1
2017-Oct-06 07:53N 01°15' E 103°28'0 0.2
2017-Oct-06 07:17N 01°15' E 103°28'0 0.3
2017-Oct-06 07:00N 01°15' E 103°28'0 0.2
2017-Oct-06 06:30N 01°15' E 103°28'0 0.0
2017-Oct-06 05:36N 01°15' E 103°28'0 0.0
2017-Oct-06 05:21N 01°15' E 103°28'0 0.0
2017-Oct-06 04:57N 01°15' E 103°28'0 0.1
2017-Oct-06 01:18N 01°15' E 103°28'0 0.2
2017-Oct-06 00:54N 01°15' E 103°28'0 0.1
2017-Oct-06 00:30N 01°15' E 103°28'0 0.1
2017-Oct-05 23:42N 01°15' E 103°28'0 0.0
2017-Oct-05 23:18N 01°15' E 103°28'0 0.0
2017-Oct-05 23:00N 01°15' E 103°28'0 0.0
2017-Oct-05 22:30N 01°15' E 103°28'0 0.0
2017-Oct-05 22:00N 01°15' E 103°28'0 0.0
2017-Oct-05 21:30N 01°15' E 103°28'0 0.0
2017-Oct-05 21:00N 01°15' E 103°28'0 0.0
2017-Oct-05 20:21N 01°15' E 103°28'0 0.0
2017-Oct-05 20:00N 01°15' E 103°28'0 0.0
2017-Oct-05 19:30N 01°15' E 103°28'0 0.0
2017-Oct-05 18:51N 01°15' E 103°28'0 0.0
2017-Oct-05 18:30N 01°15' E 103°28'0 0.0
2017-Oct-05 18:00N 01°15' E 103°28'0 0.0
2017-Oct-05 17:30N 01°15' E 103°28'0 0.0
2017-Oct-05 17:00N 01°15' E 103°28'0 0.0
2017-Oct-05 15:27N 01°15' E 103°28'0 0.1
2017-Oct-05 14:51N 01°15' E 103°28'0 0.0
2017-Oct-05 14:15N 01°15' E 103°28'0 0.0
2017-Oct-05 13:54N 01°15' E 103°28'0 0.0
2017-Oct-05 13:27N 01°15' E 103°28'0 0.2
2017-Oct-05 13:00N 01°15' E 103°28'3 6.3
2017-Oct-05 12:30N 01°14' E 103°25'712.3
2017-Oct-05 11:56N 01°16' E 103°18'  

Dump ship's entire track history